sensor_id;sensor_type;location;lat;lon;timestamp;pressure;altitude;pressure_sealevel;temperature;humidity
73842;BME280;62184;52.006;5.924;2023-04-08T00:00:59;101451.78;;;11.64;52.02
73842;BME280;62184;52.006;5.924;2023-04-08T00:03:26;101456.41;;;11.55;52.02
73842;BME280;62184;52.006;5.924;2023-04-08T00:05:55;101455.59;;;11.52;51.86
73842;BME280;62184;52.006;5.924;2023-04-08T00:08:21;101452.97;;;11.49;51.71
73842;BME280;62184;52.006;5.924;2023-04-08T00:10:47;101462.75;;;11.50;51.52
73842;BME280;62184;52.006;5.924;2023-04-08T00:13:14;101460.97;;;11.49;51.09
73842;BME280;62184;52.006;5.924;2023-04-08T00:15:40;101467.22;;;11.49;51.03
73842;BME280;62184;52.006;5.924;2023-04-08T00:18:07;101458.38;;;11.46;50.93
73842;BME280;62184;52.006;5.924;2023-04-08T00:20:33;101459.31;;;11.43;51.01
73842;BME280;62184;52.006;5.924;2023-04-08T00:23:02;101456.69;;;11.40;51.41
73842;BME280;62184;52.006;5.924;2023-04-08T00:25:30;101454.03;;;11.39;51.75
73842;BME280;62184;52.006;5.924;2023-04-08T00:27:56;101456.84;;;11.33;51.89
73842;BME280;62184;52.006;5.924;2023-04-08T00:30:23;101464.97;;;11.27;52.19
73842;BME280;62184;52.006;5.924;2023-04-08T00:32:49;101464.19;;;11.22;51.75
73842;BME280;62184;52.006;5.924;2023-04-08T00:35:16;101462.56;;;11.13;51.72
73842;BME280;62184;52.006;5.924;2023-04-08T00:37:42;101468.88;;;11.07;51.84
73842;BME280;62184;52.006;5.924;2023-04-08T00:40:11;101468.97;;;11.01;51.85
73842;BME280;62184;52.006;5.924;2023-04-08T00:42:38;101461.00;;;10.97;51.85
73842;BME280;62184;52.006;5.924;2023-04-08T00:45:05;101469.13;;;10.92;51.80
73842;BME280;62184;52.006;5.924;2023-04-08T00:47:35;101467.44;;;10.88;51.62
73842;BME280;62184;52.006;5.924;2023-04-08T00:50:01;101480.88;;;10.81;51.93
73842;BME280;62184;52.006;5.924;2023-04-08T00:52:29;101475.66;;;10.71;52.12
73842;BME280;62184;52.006;5.924;2023-04-08T00:54:55;101473.94;;;10.67;52.01
73842;BME280;62184;52.006;5.924;2023-04-08T00:57:24;101480.31;;;10.57;52.40
73842;BME280;62184;52.006;5.924;2023-04-08T00:59:51;101476.84;;;10.51;52.56
73842;BME280;62184;52.006;5.924;2023-04-08T01:02:24;101487.41;;;10.60;52.46
73842;BME280;62184;52.006;5.924;2023-04-08T01:05:03;101480.25;;;10.62;52.58
73842;BME280;62184;52.006;5.924;2023-04-08T01:07:33;101478.41;;;10.67;52.61
73842;BME280;62184;52.006;5.924;2023-04-08T01:10:05;101475.63;;;10.73;52.30
73842;BME280;62184;52.006;5.924;2023-04-08T01:12:47;101478.28;;;10.77;52.78
73842;BME280;62184;52.006;5.924;2023-04-08T01:15:16;101472.94;;;10.77;52.66
73842;BME280;62184;52.006;5.924;2023-04-08T01:17:44;101478.28;;;10.77;52.61
73842;BME280;62184;52.006;5.924;2023-04-08T01:20:15;101480.06;;;10.75;52.72
73842;BME280;62184;52.006;5.924;2023-04-08T01:22:54;101481.88;;;10.72;52.59
73842;BME280;62184;52.006;5.924;2023-04-08T01:25:30;101483.69;;;10.70;52.39
73842;BME280;62184;52.006;5.924;2023-04-08T01:28:03;101481.94;;;10.69;52.28
73842;BME280;62184;52.006;5.924;2023-04-08T01:30:33;101479.41;;;10.58;52.09
73842;BME280;62184;52.006;5.924;2023-04-08T01:33:01;101484.00;;;10.49;52.07
73842;BME280;62184;52.006;5.924;2023-04-08T01:35:29;101476.94;;;10.45;52.18
73842;BME280;62184;52.006;5.924;2023-04-08T01:37:57;101484.97;;;10.45;51.90
73842;BME280;62184;52.006;5.924;2023-04-08T01:40:25;101493.00;;;10.41;52.14
73842;BME280;62184;52.006;5.924;2023-04-08T01:42:54;101488.66;;;10.34;52.11
73842;BME280;62184;52.006;5.924;2023-04-08T01:45:25;101495.00;;;10.26;51.86
73842;BME280;62184;52.006;5.924;2023-04-08T01:47:54;101496.00;;;10.19;52.50
73842;BME280;62184;52.006;5.924;2023-04-08T01:50:22;101495.13;;;10.17;52.16
73842;BME280;62184;52.006;5.924;2023-04-08T01:52:53;101496.03;;;10.14;52.17
73842;BME280;62184;52.006;5.924;2023-04-08T01:55:21;101490.75;;;10.11;52.29
73842;BME280;62184;52.006;5.924;2023-04-08T01:57:51;101500.53;;;10.11;52.14
73842;BME280;62184;52.006;5.924;2023-04-08T02:00:21;101499.66;;;10.10;52.12
73842;BME280;62184;52.006;5.924;2023-04-08T02:02:54;101497.88;;;10.11;52.08
73842;BME280;62184;52.006;5.924;2023-04-08T02:05:22;101499.66;;;10.10;52.13
73842;BME280;62184;52.006;5.924;2023-04-08T02:07:48;101502.31;;;10.10;51.87
73842;BME280;62184;52.006;5.924;2023-04-08T02:10:15;101497.88;;;10.09;51.99
73842;BME280;62184;52.006;5.924;2023-04-08T02:12:42;101494.31;;;10.10;51.83
73842;BME280;62184;52.006;5.924;2023-04-08T02:15:09;101497.97;;;10.05;52.00
73842;BME280;62184;52.006;5.924;2023-04-08T02:17:43;101503.34;;;9.97;51.91
73842;BME280;62184;52.006;5.924;2023-04-08T02:20:15;101505.31;;;9.84;52.22
73842;BME280;62184;52.006;5.924;2023-04-08T02:22:47;101500.03;;;9.78;52.21
73842;BME280;62184;52.006;5.924;2023-04-08T02:25:20;101502.66;;;9.80;52.51
73842;BME280;62184;52.006;5.924;2023-04-08T02:27:51;101504.41;;;9.84;52.42
73842;BME280;62184;52.006;5.924;2023-04-08T02:30:20;101495.50;;;9.88;52.36
73842;BME280;62184;52.006;5.924;2023-04-08T02:32:50;101493.66;;;9.91;52.21
73842;BME280;62184;52.006;5.924;2023-04-08T02:35:19;101501.72;;;9.85;52.54
73842;BME280;62184;52.006;5.924;2023-04-08T02:37:46;101499.97;;;9.83;52.30
73842;BME280;62184;52.006;5.924;2023-04-08T02:40:23;101497.31;;;9.81;52.33
73842;BME280;62184;52.006;5.924;2023-04-08T02:42:51;101495.53;;;9.80;52.27
73842;BME280;62184;52.006;5.924;2023-04-08T02:45:18;101500.94;;;9.76;52.46
73842;BME280;62184;52.006;5.924;2023-04-08T02:47:45;101501.03;;;9.68;52.35
73842;BME280;62184;52.006;5.924;2023-04-08T02:50:14;101500.16;;;9.64;52.42
73842;BME280;62184;52.006;5.924;2023-04-08T02:52:40;101495.78;;;9.60;52.25
73842;BME280;62184;52.006;5.924;2023-04-08T02:55:07;101500.25;;;9.55;52.49
73842;BME280;62184;52.006;5.924;2023-04-08T02:57:34;101504.69;;;9.56;52.43
73842;BME280;62184;52.006;5.924;2023-04-08T03:00:00;101502.09;;;9.53;52.51
73842;BME280;62184;52.006;5.924;2023-04-08T03:02:27;101508.34;;;9.48;53.00
73842;BME280;62184;52.006;5.924;2023-04-08T03:04:53;101511.88;;;9.48;53.00
73842;BME280;62184;52.006;5.924;2023-04-08T03:07:22;101511.88;;;9.48;53.04
73842;BME280;62184;52.006;5.924;2023-04-08T03:09:49;101512.78;;;9.49;52.62
73842;BME280;62184;52.006;5.924;2023-04-08T03:12:16;101515.44;;;9.47;52.86
73842;BME280;62184;52.006;5.924;2023-04-08T03:14:42;101519.94;;;9.45;52.93
73842;BME280;62184;52.006;5.924;2023-04-08T03:17:09;101516.41;;;9.40;53.24
73842;BME280;62184;52.006;5.924;2023-04-08T03:19:35;101521.81;;;9.36;53.63
73842;BME280;62184;52.006;5.924;2023-04-08T03:22:01;101518.25;;;9.32;53.96
73842;BME280;62184;52.006;5.924;2023-04-08T03:24:30;101526.19;;;9.38;53.83
73842;BME280;62184;52.006;5.924;2023-04-08T03:26:57;101529.75;;;9.39;53.68
73842;BME280;62184;52.006;5.924;2023-04-08T03:29:23;101529.81;;;9.34;54.21
73842;BME280;62184;52.006;5.924;2023-04-08T03:31:50;101536.03;;;9.33;54.22
73842;BME280;62184;52.006;5.924;2023-04-08T03:34:16;101528.97;;;9.27;54.56
73842;BME280;62184;52.006;5.924;2023-04-08T03:36:43;101524.50;;;9.30;54.44
73842;BME280;62184;52.006;5.924;2023-04-08T03:39:09;101529.81;;;9.31;54.21
73842;BME280;62184;52.006;5.924;2023-04-08T03:41:38;101532.47;;;9.33;54.00
73842;BME280;62184;52.006;5.924;2023-04-08T03:44:05;101528.91;;;9.35;53.70
73842;BME280;62184;52.006;5.924;2023-04-08T03:46:31;101538.69;;;9.36;53.49
73842;BME280;62184;52.006;5.924;2023-04-08T03:48:57;101537.78;;;9.37;53.44
73842;BME280;62184;52.006;5.924;2023-04-08T03:51:24;101536.88;;;9.38;53.37
73842;BME280;62184;52.006;5.924;2023-04-08T03:53:50;101531.56;;;9.37;53.30
73842;BME280;62184;52.006;5.924;2023-04-08T03:56:16;101545.81;;;9.34;53.59
73842;BME280;62184;52.006;5.924;2023-04-08T03:58:46;101544.91;;;9.32;53.39
73842;BME280;62184;52.006;5.924;2023-04-08T04:01:13;101542.25;;;9.32;53.44
73842;BME280;62184;52.006;5.924;2023-04-08T04:03:39;101545.81;;;9.31;53.32
73842;BME280;62184;52.006;5.924;2023-04-08T04:06:06;101548.47;;;9.33;53.34
73842;BME280;62184;52.006;5.924;2023-04-08T04:08:32;101543.16;;;9.31;53.19
73842;BME280;62184;52.006;5.924;2023-04-08T04:10:59;101544.97;;;9.29;53.06
73842;BME280;62184;52.006;5.924;2023-04-08T04:13:25;101547.66;;;9.27;53.08
73842;BME280;62184;52.006;5.924;2023-04-08T04:15:55;101557.41;;;9.27;53.17
73842;BME280;62184;52.006;5.924;2023-04-08T04:18:22;101551.22;;;9.23;53.56
73842;BME280;62184;52.006;5.924;2023-04-08T04:20:48;101556.53;;;9.25;53.60
73842;BME280;62184;52.006;5.924;2023-04-08T04:23:14;101558.31;;;9.26;53.60
73842;BME280;62184;52.006;5.924;2023-04-08T04:25:41;101568.16;;;9.18;53.99
73842;BME280;62184;52.006;5.924;2023-04-08T04:28:07;101558.41;;;9.08;54.43
73842;BME280;62184;52.006;5.924;2023-04-08T04:30:35;101563.78;;;9.03;54.56
73842;BME280;62184;52.006;5.924;2023-04-08T04:33:05;101565.56;;;9.00;54.68
73842;BME280;62184;52.006;5.924;2023-04-08T04:35:32;101568.22;;;9.03;54.93
73842;BME280;62184;52.006;5.924;2023-04-08T04:37:58;101570.91;;;9.01;54.89
73842;BME280;62184;52.006;5.924;2023-04-08T04:40:25;101577.13;;;8.99;55.15
73842;BME280;62184;52.006;5.924;2023-04-08T04:42:51;101571.84;;;8.94;55.23
73842;BME280;62184;52.006;5.924;2023-04-08T04:45:18;101580.72;;;8.90;55.27
73842;BME280;62184;52.006;5.924;2023-04-08T04:47:44;101582.50;;;8.88;55.36
73842;BME280;62184;52.006;5.924;2023-04-08T04:50:13;101588.72;;;8.88;55.38
73842;BME280;62184;52.006;5.924;2023-04-08T04:52:39;101580.72;;;8.88;55.53
73842;BME280;62184;52.006;5.924;2023-04-08T04:55:07;101583.38;;;8.92;55.35
73842;BME280;62184;52.006;5.924;2023-04-08T04:57:34;101586.94;;;8.95;55.23
73842;BME280;62184;52.006;5.924;2023-04-08T05:00:00;101590.44;;;8.99;55.02
73842;BME280;62184;52.006;5.924;2023-04-08T05:02:27;101593.09;;;9.03;54.61
73842;BME280;62184;52.006;5.924;2023-04-08T05:04:53;101591.28;;;9.05;54.34
73842;BME280;62184;52.006;5.924;2023-04-08T05:07:22;101588.59;;;9.08;54.32
73842;BME280;62184;52.006;5.924;2023-04-08T05:09:48;101586.84;;;9.09;53.79
73842;BME280;62184;52.006;5.924;2023-04-08T05:12:15;101599.25;;;9.10;53.52
73842;BME280;62184;52.006;5.924;2023-04-08T05:14:41;101595.72;;;9.09;53.52
73842;BME280;62184;52.006;5.924;2023-04-08T05:17:08;101594.81;;;9.09;53.58
73842;BME280;62184;52.006;5.924;2023-04-08T05:19:34;101599.28;;;9.08;53.44
73842;BME280;62184;52.006;5.924;2023-04-08T05:22:00;101610.78;;;9.13;53.36
73842;BME280;62184;52.006;5.924;2023-04-08T05:24:29;101601.00;;;9.17;53.50
73842;BME280;62184;52.006;5.924;2023-04-08T05:26:56;101608.97;;;9.17;53.70
73842;BME280;62184;52.006;5.924;2023-04-08T05:29:22;101609.84;;;9.25;53.54
73842;BME280;62184;52.006;5.924;2023-04-08T05:31:49;101611.63;;;9.29;53.20
73842;BME280;62184;52.006;5.924;2023-04-08T05:34:15;101610.66;;;9.36;53.51
73842;BME280;62184;52.006;5.924;2023-04-08T05:36:42;101613.28;;;9.44;53.31
73842;BME280;62184;52.006;5.924;2023-04-08T05:39:08;101619.44;;;9.50;53.30
73842;BME280;62184;52.006;5.924;2023-04-08T05:41:37;101616.75;;;9.53;53.40
73842;BME280;62184;52.006;5.924;2023-04-08T05:44:03;101623.81;;;9.60;53.42
73842;BME280;62184;52.006;5.924;2023-04-08T05:46:30;101620.19;;;9.68;53.38
73842;BME280;62184;52.006;5.924;2023-04-08T05:48:56;101618.34;;;9.73;53.39
73842;BME280;62184;52.006;5.924;2023-04-08T05:51:23;101620.03;;;9.80;53.38
73842;BME280;62184;52.006;5.924;2023-04-08T05:53:49;101627.13;;;9.87;53.31
73842;BME280;62184;52.006;5.924;2023-04-08T05:56:16;101636.84;;;9.95;53.23
73842;BME280;62184;52.006;5.924;2023-04-08T05:58:45;101630.56;;;9.98;53.10
73842;BME280;62184;52.006;5.924;2023-04-08T06:01:11;101636.78;;;9.98;53.46
73842;BME280;62184;52.006;5.924;2023-04-08T06:03:38;101636.75;;;10.03;53.68
73842;BME280;62184;52.006;5.924;2023-04-08T06:06:08;101638.47;;;10.10;53.49
73842;BME280;62184;52.006;5.924;2023-04-08T06:08:35;101641.06;;;10.16;53.33
73842;BME280;62184;52.006;5.924;2023-04-08T06:11:01;101640.09;;;10.23;53.43
73842;BME280;62184;52.006;5.924;2023-04-08T06:13:28;101655.13;;;10.30;53.49
73842;BME280;62184;52.006;5.924;2023-04-08T06:15:57;101652.44;;;10.32;53.64
73842;BME280;62184;52.006;5.924;2023-04-08T06:18:24;101654.25;;;10.30;53.96
73842;BME280;62184;52.006;5.924;2023-04-08T06:20:50;101658.69;;;10.32;54.02
73842;BME280;62184;52.006;5.924;2023-04-08T06:23:17;101659.50;;;10.39;54.18
73842;BME280;62184;52.006;5.924;2023-04-08T06:25:43;101663.00;;;10.44;54.12
73842;BME280;62184;52.006;5.924;2023-04-08T06:28:09;101657.69;;;10.41;53.98
73842;BME280;62184;52.006;5.924;2023-04-08T06:30:36;101666.69;;;10.34;54.36
73842;BME280;62184;52.006;5.924;2023-04-08T06:33:07;101671.19;;;10.27;54.53
73842;BME280;62184;52.006;5.924;2023-04-08T06:35:33;101671.19;;;10.29;54.67
73842;BME280;62184;52.006;5.924;2023-04-08T06:37:59;101671.16;;;10.30;55.02
73842;BME280;62184;52.006;5.924;2023-04-08T06:40:26;101665.78;;;10.33;55.09
73842;BME280;62184;52.006;5.924;2023-04-08T06:42:52;101679.94;;;10.43;54.98
73842;BME280;62184;52.006;5.924;2023-04-08T06:45:19;101684.31;;;10.50;55.27
73842;BME280;62184;52.006;5.924;2023-04-08T06:47:45;101683.31;;;10.59;55.24
73842;BME280;62184;52.006;5.924;2023-04-08T06:50:14;101683.19;;;10.69;55.34
73842;BME280;62184;52.006;5.924;2023-04-08T06:52:41;101678.69;;;10.77;55.33
73842;BME280;62184;52.006;5.924;2023-04-08T06:55:08;101678.56;;;10.87;55.34
73842;BME280;62184;52.006;5.924;2023-04-08T06:57:34;101689.97;;;11.01;55.16
73842;BME280;62184;52.006;5.924;2023-04-08T07:00:01;101684.47;;;11.11;55.20
73842;BME280;62184;52.006;5.924;2023-04-08T07:02:27;101674.47;;;11.24;55.09
73842;BME280;62184;52.006;5.924;2023-04-08T07:04:53;101693.94;;;11.37;54.87
73842;BME280;62184;52.006;5.924;2023-04-08T07:07:22;101691.19;;;11.40;55.06
73842;BME280;62184;52.006;5.924;2023-04-08T07:09:49;101695.50;;;11.48;55.10
73842;BME280;62184;52.006;5.924;2023-04-08T07:12:15;101703.38;;;11.59;55.43
73842;BME280;62184;52.006;5.924;2023-04-08T07:14:42;101697.88;;;11.71;55.24
73842;BME280;62184;52.006;5.924;2023-04-08T07:17:08;101701.22;;;11.82;55.07
73842;BME280;62184;52.006;5.924;2023-04-08T07:19:35;101706.38;;;11.96;55.22
73842;BME280;62184;52.006;5.924;2023-04-08T07:22:01;101716.94;;;12.05;55.15
73842;BME280;62184;52.006;5.924;2023-04-08T07:24:30;101703.41;;;12.13;54.96
73842;BME280;62184;52.006;5.924;2023-04-08T07:26:56;101711.25;;;12.25;54.99
73842;BME280;62184;52.006;5.924;2023-04-08T07:29:23;101713.72;;;12.37;54.84
73842;BME280;62184;52.006;5.924;2023-04-08T07:31:49;101717.13;;;12.47;54.79
73842;BME280;62184;52.006;5.924;2023-04-08T07:34:16;101725.84;;;12.56;54.67
73842;BME280;62184;52.006;5.924;2023-04-08T07:36:42;101729.22;;;12.66;54.71
73842;BME280;62184;52.006;5.924;2023-04-08T07:39:09;101736.25;;;12.73;54.86
73842;BME280;62184;52.006;5.924;2023-04-08T07:41:38;101729.78;;;12.83;54.68
73842;BME280;62184;52.006;5.924;2023-04-08T07:44:04;101728.53;;;13.01;55.13
73842;BME280;62184;52.006;5.924;2023-04-08T07:46:31;101734.44;;;13.18;55.08
73842;BME280;62184;52.006;5.924;2023-04-08T07:49:01;101722.59;;;13.28;54.31
73842;BME280;62184;52.006;5.924;2023-04-08T07:51:28;101729.38;;;13.46;54.47
73842;BME280;62184;52.006;5.924;2023-04-08T07:53:54;101727.06;;;13.68;54.30
73842;BME280;62184;52.006;5.924;2023-04-08T07:56:20;101731.00;;;13.90;53.81
73842;BME280;62184;52.006;5.924;2023-04-08T07:58:49;101734.16;;;14.07;53.59
73842;BME280;62184;52.006;5.924;2023-04-08T08:01:17;101729.25;;;14.25;53.04
73842;BME280;62184;52.006;5.924;2023-04-08T08:03:45;101730.66;;;14.39;53.07
73842;BME280;62184;52.006;5.924;2023-04-08T08:06:12;101733.09;;;14.48;52.68
73842;BME280;62184;52.006;5.924;2023-04-08T08:08:38;101733.91;;;14.53;52.19
73842;BME280;62184;52.006;5.924;2023-04-08T08:11:04;101733.75;;;14.58;51.74
73842;BME280;62184;52.006;5.924;2023-04-08T08:13:31;101730.47;;;14.47;51.33
73842;BME280;62184;52.006;5.924;2023-04-08T08:16:01;101737.94;;;14.34;51.93
73842;BME280;62184;52.006;5.924;2023-04-08T08:18:27;101735.16;;;14.39;51.91
73842;BME280;62184;52.006;5.924;2023-04-08T08:20:54;101737.38;;;14.57;52.02
73842;BME280;62184;52.006;5.924;2023-04-08T08:23:20;101738.69;;;14.75;51.57
73842;BME280;62184;52.006;5.924;2023-04-08T08:25:46;101745.84;;;14.74;51.26
73842;BME280;62184;52.006;5.924;2023-04-08T08:28:13;101744.25;;;14.67;51.38
73842;BME280;62184;52.006;5.924;2023-04-08T08:30:39;101752.34;;;14.67;51.03
73842;BME280;62184;52.006;5.924;2023-04-08T08:33:08;101770.06;;;14.74;51.43
73842;BME280;62184;52.006;5.924;2023-04-08T08:35:35;101767.94;;;14.87;51.89
73842;BME280;62184;52.006;5.924;2023-04-08T08:38:01;101763.19;;;14.97;51.68
73842;BME280;62184;52.006;5.924;2023-04-08T08:40:27;101764.72;;;15.05;51.34
73842;BME280;62184;52.006;5.924;2023-04-08T08:42:54;101766.22;;;15.15;50.26
73842;BME280;62184;52.006;5.924;2023-04-08T08:45:20;101767.00;;;15.19;49.70
73842;BME280;62184;52.006;5.924;2023-04-08T08:47:47;101764.91;;;15.30;49.78
73842;BME280;62184;52.006;5.924;2023-04-08T08:50:16;101761.50;;;15.53;49.10
73842;BME280;62184;52.006;5.924;2023-04-08T08:52:47;101767.34;;;15.68;49.11
73842;BME280;62184;52.006;5.924;2023-04-08T08:55:15;101767.03;;;15.78;48.30
73842;BME280;62184;52.006;5.924;2023-04-08T08:57:43;101772.09;;;15.88;48.42
73842;BME280;62184;52.006;5.924;2023-04-08T09:00:11;101770.88;;;15.98;47.92
73842;BME280;62184;52.006;5.924;2023-04-08T09:02:38;101776.19;;;16.00;47.37
73842;BME280;62184;52.006;5.924;2023-04-08T09:05:05;101779.38;;;16.13;47.89
73842;BME280;62184;52.006;5.924;2023-04-08T09:07:37;101778.28;;;16.18;47.29
73842;BME280;62184;52.006;5.924;2023-04-08T09:10:06;101773.84;;;16.17;46.94
73842;BME280;62184;52.006;5.924;2023-04-08T09:12:33;101772.59;;;16.27;47.16
73842;BME280;62184;52.006;5.924;2023-04-08T09:15:04;101774.28;;;16.31;46.40
73842;BME280;62184;52.006;5.924;2023-04-08T09:17:33;101775.69;;;16.41;47.32
73842;BME280;62184;52.006;5.924;2023-04-08T09:20:04;101776.94;;;16.58;46.88
73842;BME280;62184;52.006;5.924;2023-04-08T09:22:32;101775.28;;;16.80;47.29
73842;BME280;62184;52.006;5.924;2023-04-08T09:25:22;101778.88;;;17.05;46.74
73842;BME280;62184;52.006;5.924;2023-04-08T09:27:49;101777.31;;;17.23;46.04
73842;BME280;62184;52.006;5.924;2023-04-08T09:30:16;101779.78;;;17.29;44.91
73842;BME280;62184;52.006;5.924;2023-04-08T09:32:46;101775.00;;;17.36;44.72
73842;BME280;62184;52.006;5.924;2023-04-08T09:35:14;101773.63;;;17.49;44.80
73842;BME280;62184;52.006;5.924;2023-04-08T09:37:45;101767.97;;;17.55;43.52
73842;BME280;62184;52.006;5.924;2023-04-08T09:40:12;101770.41;;;17.63;43.39
73842;BME280;62184;52.006;5.924;2023-04-08T09:42:40;101770.03;;;17.72;43.46
73842;BME280;62184;52.006;5.924;2023-04-08T09:45:11;101771.31;;;17.85;43.63
73842;BME280;62184;52.006;5.924;2023-04-08T09:47:43;101767.97;;;18.00;43.17
73842;BME280;62184;52.006;5.924;2023-04-08T09:50:24;101777.47;;;18.10;43.63
73842;BME280;62184;52.006;5.924;2023-04-08T09:53:00;101778.03;;;18.18;43.20
73842;BME280;62184;52.006;5.924;2023-04-08T09:55:33;101781.94;;;18.33;42.96
73842;BME280;62184;52.006;5.924;2023-04-08T09:58:07;101784.75;;;18.52;42.42
73842;BME280;62184;52.006;5.924;2023-04-08T10:00:45;101782.88;;;18.54;43.35
73842;BME280;62184;52.006;5.924;2023-04-08T10:03:25;101780.38;;;18.69;42.39
73842;BME280;62184;52.006;5.924;2023-04-08T10:05:54;101783.63;;;18.78;42.06
73842;BME280;62184;52.006;5.924;2023-04-08T10:08:25;101775.13;;;18.87;40.94
73842;BME280;62184;52.006;5.924;2023-04-08T10:10:53;101782.22;;;18.89;40.05
73842;BME280;62184;52.006;5.924;2023-04-08T10:13:20;101783.72;;;18.96;39.94
73842;BME280;62184;52.006;5.924;2023-04-08T10:15:48;101781.66;;;19.01;39.70
73842;BME280;62184;52.006;5.924;2023-04-08T10:18:29;101780.59;;;19.05;38.88
73842;BME280;62184;52.006;5.924;2023-04-08T10:20:56;101789.41;;;19.29;39.12
73842;BME280;62184;52.006;5.924;2023-04-08T10:26:44;101794.59;;;19.15;38.92
73842;BME280;62184;52.006;5.924;2023-04-08T10:32:03;101781.66;;;19.61;39.58
73842;BME280;62184;52.006;5.924;2023-04-08T10:34:30;101776.81;;;19.67;39.67
73842;BME280;62184;52.006;5.924;2023-04-08T10:36:57;101774.56;;;19.58;40.08
73842;BME280;62184;52.006;5.924;2023-04-08T10:39:26;101770.75;;;19.62;39.50
73842;BME280;62184;52.006;5.924;2023-04-08T10:41:53;101774.41;;;19.61;38.66
73842;BME280;62184;52.006;5.924;2023-04-08T10:44:21;101765.25;;;19.64;38.62
73842;BME280;62184;52.006;5.924;2023-04-08T10:46:50;101764.56;;;19.59;38.27
73842;BME280;62184;52.006;5.924;2023-04-08T10:49:17;101765.56;;;19.58;38.62
73842;BME280;62184;52.006;5.924;2023-04-08T10:51:45;101772.19;;;19.69;38.65
73842;BME280;62184;52.006;5.924;2023-04-08T10:54:13;101766.19;;;19.81;38.28
73842;BME280;62184;52.006;5.924;2023-04-08T10:56:48;101759.09;;;19.79;37.43
73842;BME280;62184;52.006;5.924;2023-04-08T10:59:17;101759.31;;;19.74;37.62
73842;BME280;62184;52.006;5.924;2023-04-08T11:01:53;101759.38;;;19.73;37.44
73842;BME280;62184;52.006;5.924;2023-04-08T11:04:20;101758.56;;;19.71;36.64
73842;BME280;62184;52.006;5.924;2023-04-08T11:06:46;101765.19;;;19.65;36.79
73842;BME280;62184;52.006;5.924;2023-04-08T11:09:13;101767.88;;;19.65;36.96
73842;BME280;62184;52.006;5.924;2023-04-08T11:11:42;101767.38;;;19.57;37.04
73842;BME280;62184;52.006;5.924;2023-04-08T11:14:12;101767.00;;;19.65;37.35
73842;BME280;62184;52.006;5.924;2023-04-08T11:16:39;101772.78;;;19.76;37.04
73842;BME280;62184;52.006;5.924;2023-04-08T11:19:06;101771.03;;;19.75;36.62
73842;BME280;62184;52.006;5.924;2023-04-08T11:21:34;101766.41;;;19.77;36.85
73842;BME280;62184;52.006;5.924;2023-04-08T11:24:05;101771.97;;;19.93;36.37
73842;BME280;62184;52.006;5.924;2023-04-08T11:26:35;101767.56;;;20.09;36.45
73842;BME280;62184;52.006;5.924;2023-04-08T11:29:03;101758.91;;;20.19;36.21
73842;BME280;62184;52.006;5.924;2023-04-08T11:31:33;101768.50;;;20.44;35.87
73842;BME280;62184;52.006;5.924;2023-04-08T11:34:00;101760.38;;;20.78;35.54
73842;BME280;62184;52.006;5.924;2023-04-08T11:36:28;101751.88;;;20.84;35.59
73842;BME280;62184;52.006;5.924;2023-04-08T11:38:54;101754.78;;;20.81;34.32
73842;BME280;62184;52.006;5.924;2023-04-08T11:41:21;101763.16;;;20.77;33.74
73842;BME280;62184;52.006;5.924;2023-04-08T11:43:54;101759.91;;;20.70;33.75
73842;BME280;62184;52.006;5.924;2023-04-08T11:46:21;101755.13;;;20.58;33.48
73842;BME280;62184;52.006;5.924;2023-04-08T11:49:01;101757.97;;;20.38;33.80
73842;BME280;62184;52.006;5.924;2023-04-08T11:51:30;101760.44;;;20.25;32.60
73842;BME280;62184;52.006;5.924;2023-04-08T11:53:57;101751.28;;;20.09;32.51
73842;BME280;62184;52.006;5.924;2023-04-08T11:56:24;101753.84;;;19.93;33.15
73842;BME280;62184;52.006;5.924;2023-04-08T11:58:52;101759.91;;;19.81;33.10
73842;BME280;62184;52.006;5.924;2023-04-08T12:01:19;101765.00;;;19.68;33.76
73842;BME280;62184;52.006;5.924;2023-04-08T12:04:00;101762.91;;;19.56;33.83
73842;BME280;62184;52.006;5.924;2023-04-08T12:06:32;101764.06;;;19.51;33.71
73842;BME280;62184;52.006;5.924;2023-04-08T12:08:59;101767.22;;;19.60;34.46
73842;BME280;62184;52.006;5.924;2023-04-08T12:11:25;101763.94;;;19.72;35.04
73842;BME280;62184;52.006;5.924;2023-04-08T12:13:52;101770.22;;;19.73;34.72
73842;BME280;62184;52.006;5.924;2023-04-08T12:16:19;101771.69;;;19.80;34.86
73842;BME280;62184;52.006;5.924;2023-04-08T12:18:45;101766.25;;;19.80;34.68
73842;BME280;62184;52.006;5.924;2023-04-08T12:21:15;101772.00;;;19.74;34.95
73842;BME280;62184;52.006;5.924;2023-04-08T12:23:42;101766.19;;;19.81;34.47
73842;BME280;62184;52.006;5.924;2023-04-08T12:26:09;101755.34;;;20.00;35.07
73842;BME280;62184;52.006;5.924;2023-04-08T12:28:35;101756.91;;;20.23;35.90
73842;BME280;62184;52.006;5.924;2023-04-08T12:31:03;101758.13;;;20.52;34.95
73842;BME280;62184;52.006;5.924;2023-04-08T12:33:29;101756.47;;;20.67;34.51
73842;BME280;62184;52.006;5.924;2023-04-08T12:35:56;101760.78;;;20.71;34.16
73842;BME280;62184;52.006;5.924;2023-04-08T12:38:26;101749.84;;;20.72;34.24
73842;BME280;62184;52.006;5.924;2023-04-08T12:40:54;101766.47;;;20.66;33.91
73842;BME280;62184;52.006;5.924;2023-04-08T12:43:21;101757.19;;;20.70;33.63
73842;BME280;62184;52.006;5.924;2023-04-08T12:45:49;101764.38;;;20.71;33.84
73842;BME280;62184;52.006;5.924;2023-04-08T12:48:16;101759.28;;;20.65;33.79
73842;BME280;62184;52.006;5.924;2023-04-08T12:50:43;101754.31;;;20.56;33.75
73842;BME280;62184;52.006;5.924;2023-04-08T12:53:09;101759.59;;;20.59;34.02
73842;BME280;62184;52.006;5.924;2023-04-08T12:55:39;101757.84;;;20.58;33.99
73842;BME280;62184;52.006;5.924;2023-04-08T12:58:05;101761.66;;;20.54;33.72
73842;BME280;62184;52.006;5.924;2023-04-08T13:00:31;101749.09;;;20.51;34.19
73842;BME280;62184;52.006;5.924;2023-04-08T13:02:58;101757.50;;;20.47;34.14